Time;durP1;ratioP1;P1;durP2;ratioP2;P2;SDS_P1;SDS_P2;PMS_P1;PMS_P2;Temp;Humidity;BMP_temperature;BMP_pressure;BME280_temperature;BME280_humidity;BME280_pressure;Samples;Min_cycle;Max_cycle;Signal;HPM_P1;HPM_P2
2023/07/29 00:00:07;;;;;;;6.15;4.88;;;;;;;-144.30;43.36;84388.69;5129641;28;20232;-51
2023/07/29 00:02:48;;;;;;;5.90;4.78;;;;;;;-144.30;43.11;84392.66;5130055;28;20190;-54
2023/07/29 00:05:38;;;;;;;5.47;4.45;;;;;;;-144.30;43.12;84410.56;5128490;28;20658;-54
2023/07/29 00:08:31;;;;;;;5.32;4.50;;;;;;;-144.30;43.17;84416.50;5129929;28;20597;-53
2023/07/29 00:11:29;;;;;;;5.45;4.45;;;;;;;-144.30;43.41;84466.19;5128885;28;20194;-48
2023/07/29 00:14:22;;;;;;;4.93;4.53;;;;;;;-144.30;43.82;84422.47;5129869;28;20565;-51
2023/07/29 00:17:10;;;;;;;8.23;3.88;;;;;;;-144.30;43.96;84430.44;5128472;28;20194;-51
2023/07/29 00:19:53;;;;;;;6.35;4.13;;;;;;;-144.30;44.26;84482.09;5088578;28;20191;-49
2023/07/29 00:22:30;;;;;;;5.82;4.25;;;;;;;-144.30;44.34;84496.00;5087912;28;20678;-53
2023/07/29 00:25:19;;;;;;;7.38;4.47;;;;;;;-144.30;44.47;84509.94;5092314;28;20195;-54
2023/07/29 00:28:09;;;;;;;9.02;4.50;;;;;;;-144.30;44.59;84498.00;5092505;28;20198;-53
2023/07/29 00:30:58;;;;;;;4.65;4.22;;;;;;;-144.30;44.63;84454.28;5092508;28;20285;-49
2023/07/29 00:33:44;;;;;;;5.95;4.07;;;;;;;-144.30;44.56;84474.16;5092104;28;20290;-49
2023/07/29 00:39:30;;;;;;;5.93;4.35;;;;;;;-144.30;44.46;84454.28;5091241;28;20203;-54
2023/07/29 00:42:16;;;;;;;4.57;4.28;;;;;;;-144.30;44.62;84472.16;5092364;28;20202;-50
2023/07/29 00:45:01;;;;;;;4.72;4.30;;;;;;;-144.30;45.03;84458.25;5092008;28;20196;-49
2023/07/29 00:47:56;;;;;;;4.57;4.25;;;;;;;-144.30;45.25;84486.06;5092112;28;20199;-54
2023/07/29 00:50:46;;;;;;;4.80;4.28;;;;;;;-144.30;45.29;84492.03;5089652;28;20290;-54
2023/07/29 00:53:38;;;;;;;7.78;4.70;;;;;;;-144.30;45.13;84474.16;5091899;28;20235;-52
2023/07/29 00:56:12;;;;;;;5.88;4.28;;;;;;;-144.30;45.34;84498.00;5091721;28;20717;-49
2023/07/29 00:58:49;;;;;;;4.38;3.97;;;;;;;-144.30;45.58;84466.19;5092089;28;20248;-50
2023/07/29 01:01:41;;;;;;;10.23;4.22;;;;;;;-144.30;45.43;84319.13;5090858;28;20240;-49
2023/07/29 01:04:39;;;;;;;9.00;4.35;;;;;;;-144.30;45.61;84482.09;5092070;28;20632;-54
2023/07/29 01:07:30;;;;;;;4.88;3.58;;;;;;;-144.30;45.53;84490.06;5091788;28;20231;-53
2023/07/29 01:10:24;;;;;;;4.50;3.60;;;;;;;-144.30;45.85;84458.25;5091730;28;20196;-54
2023/07/29 01:13:28;;;;;;;5.88;4.10;;;;;;;-144.30;46.29;84509.94;5091645;28;20600;-49
2023/07/29 01:16:20;;;;;;;5.75;4.68;;;;;;;-144.30;46.21;84492.03;5092005;28;20206;-53
2023/07/29 01:18:56;;;;;;;7.07;3.83;;;;;;;-144.30;46.29;84474.16;5119489;27;20233;-53
2023/07/29 01:22:01;;;;;;;7.75;3.92;;;;;;;-144.30;46.48;84501.97;5132054;27;20218;-51
2023/07/29 01:24:45;;;;;;;4.97;3.70;;;;;;;-144.30;46.64;84470.19;5132066;27;20201;-57
2023/07/29 01:27:27;;;;;;;5.13;3.63;;;;;;;-144.30;46.92;84470.19;5132372;27;20650;-50
2023/07/29 01:30:04;;;;;;;3.50;3.30;;;;;;;-144.30;46.69;84474.16;5130844;27;20205;-54
2023/07/29 01:32:46;;;;;;;4.47;4.05;;;;;;;-144.30;46.50;84503.97;5131930;27;20604;-49
2023/07/29 01:35:36;;;;;;;4.30;4.00;;;;;;;-144.30;46.36;84501.97;5131014;27;20265;-54
2023/07/29 01:38:31;;;;;;;4.15;3.88;;;;;;;-144.30;46.48;84537.75;5131831;27;20198;-51
2023/07/29 01:41:36;;;;;;;4.93;4.35;;;;;;;-144.30;46.19;84523.84;5131651;27;20229;-53
2023/07/29 01:44:20;;;;;;;7.38;3.80;;;;;;;-144.30;46.26;84517.88;5131945;27;20289;-54
2023/07/29 01:47:05;;;;;;;4.38;4.07;;;;;;;-144.30;46.34;84517.88;5131805;27;20207;-53
2023/07/29 01:49:53;;;;;;;7.38;4.40;;;;;;;-144.30;46.53;84509.94;5131880;27;20202;-53
2023/07/29 01:52:38;;;;;;;4.63;4.07;;;;;;;-144.30;46.98;84511.91;5131400;27;20497;-53
2023/07/29 01:55:27;;;;;;;6.20;4.38;;;;;;;-144.30;47.76;84541.72;5132084;27;20262;-53
2023/07/29 01:58:23;;;;;;;5.35;5.05;;;;;;;-144.30;48.42;84583.47;5131746;27;20196;-53
2023/07/29 02:01:05;;;;;;;6.00;5.50;;;;;;;-144.30;48.76;84561.59;5130421;27;20228;-50
2023/07/29 02:03:55;;;;;;;6.57;5.10;;;;;;;-144.30;49.17;84553.66;5131656;27;20190;-53
2023/07/29 02:06:43;;;;;;;6.18;5.57;;;;;;;-144.30;49.80;84597.38;5129479;27;20190;-50
2023/07/29 02:09:30;;;;;;;5.93;5.32;;;;;;;-144.30;49.97;84591.41;5131536;27;20186;-52
2023/07/29 02:12:19;;;;;;;6.30;5.80;;;;;;;-144.30;50.08;84615.25;5129096;27;20190;-53
2023/07/29 02:15:14;;;;;;;5.75;5.35;;;;;;;-144.30;50.11;84573.53;5129134;27;20204;-48
2023/07/29 02:18:00;;;;;;;6.47;5.95;;;;;;;-144.30;50.50;84603.34;5130942;27;20845;-54
2023/07/29 02:20:39;;;;;;;7.47;6.88;;;;;;;-144.30;50.46;84605.31;5130770;27;20603;-52
2023/07/29 02:23:16;;;;;;;6.30;5.80;;;;;;;-144.30;50.51;84631.16;5131255;27;20204;-53
2023/07/29 02:26:00;;;;;;;6.80;5.78;;;;;;;-144.30;50.50;84601.34;5129555;27;20632;-48
2023/07/29 02:28:51;;;;;;;6.93;6.18;;;;;;;-144.30;50.60;84629.19;5131280;27;20607;-49
2023/07/29 02:31:47;;;;;;;6.75;6.18;;;;;;;-144.30;50.87;84629.19;5130469;27;20250;-49
2023/07/29 02:34:34;;;;;;;9.05;7.68;;;;;;;-144.30;51.02;84641.09;5129582;27;20200;-52
2023/07/29 02:37:16;;;;;;;7.50;6.22;;;;;;;-144.30;51.11;84645.06;5130113;27;20194;-53
2023/07/29 02:40:01;;;;;;;6.90;6.28;;;;;;;-144.30;51.41;84555.63;5130603;27;20198;-53
2023/07/29 02:42:36;;;;;;;6.10;5.50;;;;;;;-144.30;51.74;84664.94;5129173;27;20233;-50
2023/07/29 02:45:21;;;;;;;6.65;5.68;;;;;;;-144.30;51.93;84655.00;5130581;27;20672;-53
2023/07/29 02:48:08;;;;;;;6.45;5.70;;;;;;;-144.30;52.00;84672.91;5130421;27;20193;-50
2023/07/29 02:50:41;;;;;;;6.20;5.53;;;;;;;-144.30;52.21;84662.97;5130481;27;20258;-55
2023/07/29 02:53:10;;;;;;;7.78;6.15;;;;;;;-144.30;52.25;84660.97;5129649;27;20194;-54
2023/07/29 02:55:42;;;;;;;6.28;5.78;;;;;;;-144.30;52.29;84637.13;5130283;27;20333;-53
2023/07/29 02:58:17;;;;;;;5.70;5.20;;;;;;;-144.30;52.23;84682.84;5129767;27;20562;-53
2023/07/29 03:01:02;;;;;;;5.97;5.47;;;;;;;-144.30;52.56;84686.81;5130602;27;20658;-54
2023/07/29 03:03:44;;;;;;;7.85;5.80;;;;;;;-144.30;51.96;84708.66;5129577;27;20691;-54
2023/07/29 03:06:29;;;;;;;5.75;5.22;;;;;;;-144.30;52.12;84657.00;5128885;27;20198;-54
2023/07/29 03:09:09;;;;;;;6.13;5.60;;;;;;;-144.30;52.10;84688.81;5128542;27;20190;-53
2023/07/29 03:11:46;;;;;;;5.90;5.30;;;;;;;-144.30;52.09;84688.81;5129627;27;20209;-49
2023/07/29 03:14:28;;;;;;;6.53;5.85;;;;;;;-144.30;52.13;84704.69;5129944;27;20197;-54
2023/07/29 03:17:08;;;;;;;8.07;7.13;;;;;;;-144.30;51.88;84728.56;5129554;27;20205;-54
2023/07/29 03:19:53;;;;;;;6.60;5.97;;;;;;;-144.30;51.85;84702.72;5129655;28;20258;-53
2023/07/29 03:22:32;;;;;;;6.90;5.60;;;;;;;-144.30;51.78;84680.84;5129905;28;20308;-54
2023/07/29 03:25:26;;;;;;;7.82;5.80;;;;;;;-144.30;52.43;84708.66;5127676;28;20581;-48
2023/07/29 03:28:07;;;;;;;7.85;5.50;;;;;;;-144.30;53.31;84712.66;5129824;28;20193;-53
2023/07/29 03:30:37;;;;;;;6.93;6.05;;;;;;;-144.30;53.65;84696.75;5123716;28;20193;-54
2023/07/29 03:35:54;;;;;;;7.40;6.00;;;;;;;-144.30;53.72;84686.81;5124611;28;20648;-54
2023/07/29 03:38:46;;;;;;;7.10;6.47;;;;;;;-144.30;53.76;84724.56;5124613;28;20190;-49
2023/07/29 03:41:38;;;;;;;6.82;6.00;;;;;;;-144.30;53.76;84666.94;5119375;28;20225;-53
2023/07/29 03:44:23;;;;;;;8.07;5.82;;;;;;;-144.30;53.38;84688.81;5121877;28;20195;-54
2023/07/29 03:47:13;;;;;;;7.72;6.03;;;;;;;-144.30;53.06;84649.03;5107111;28;20198;-54
2023/07/29 03:50:00;;;;;;;6.35;5.75;;;;;;;-144.30;52.63;84676.88;5122418;28;20194;-49
2023/07/29 03:53:04;;;;;;;8.13;5.85;;;;;;;-144.30;52.24;84692.78;5123185;28;20198;-49
2023/07/29 03:55:55;;;;;;;6.03;5.53;;;;;;;-144.30;52.22;84670.91;5130080;28;20229;-50
2023/07/29 04:04:36;;;;;;;5.95;5.45;;;;;;;-144.30;45.29;84166.13;5133826;27;20247;-54
2023/07/29 04:07:19;;;;;;;6.13;5.53;;;;;;;-144.30;42.36;83961.44;5131083;27;20198;-52
2023/07/29 04:09:50;;;;;;;5.18;4.60;;;;;;;-144.30;40.41;83744.84;5133836;27;20208;-50
2023/07/29 04:12:29;;;;;;;6.68;5.13;;;;;;;-144.30;38.81;83649.47;5134051;27;20190;-49
2023/07/29 04:15:00;;;;;;;5.80;4.85;;;;;;;-144.30;37.71;83524.31;5133559;27;20197;-50
2023/07/29 04:17:27;;;;;;;5.78;5.38;;;;;;;-144.30;36.23;83403.09;5133753;27;20194;-54
2023/07/29 04:19:57;;;;;;;6.78;5.72;;;;;;;-144.30;35.45;83277.94;5134065;27;20665;-54
2023/07/29 04:22:28;;;;;;;13.25;11.85;;;;;;;-144.30;33.96;83053.44;5133809;27;20657;-54
2023/07/29 04:25:04;;;;;;;6.20;5.60;;;;;;;-144.30;31.88;82693.88;5133910;27;20193;-50
2023/07/29 04:27:33;;;;;;;9.10;5.38;;;;;;;-144.30;30.57;82473.41;5131443;27;20193;-54
2023/07/29 04:30:13;;;;;;;6.03;5.43;;;;;;;-144.30;29.99;82340.34;5132830;27;20202;-54
2023/07/29 04:32:50;;;;;;;5.55;5.10;;;;;;;-144.30;29.17;82239.03;5127989;27;20182;-54
2023/07/29 04:35:25;;;;;;;7.20;4.82;;;;;;;-144.30;30.05;82441.63;5130344;27;20208;-50
2023/07/29 04:38:08;;;;;;;6.95;5.00;;;;;;;-144.30;30.00;82485.34;5132648;27;20193;-51
2023/07/29 04:41:07;;;;;;;5.55;5.05;;;;;;;-144.30;29.34;82312.53;5133297;27;20197;-50
2023/07/29 04:43:38;;;;;;;6.55;5.57;;;;;;;-144.30;29.40;82268.84;5133393;27;20198;-49
2023/07/29 04:46:11;;;;;;;6.07;5.57;;;;;;;-144.30;28.37;82052.34;5133929;27;20623;-51
2023/07/29 04:48:48;;;;;;;6.55;4.88;;;;;;;-144.30;27.67;81821.97;5131470;27;20289;-50
2023/07/29 04:51:37;;;;;;;5.78;5.28;;;;;;;-144.30;28.12;82052.34;5133256;27;20190;-54
2023/07/29 04:54:14;;;;;;;6.45;5.43;;;;;;;-144.30;27.96;81978.88;5132821;27;20215;-51
2023/07/29 04:56:53;;;;;;;6.38;5.50;;;;;;;-144.30;27.35;81760.41;5132825;27;20225;-50
2023/07/29 04:59:29;;;;;;;7.00;5.15;;;;;;;-144.30;27.17;81722.69;5131176;27;20197;-54
2023/07/29 05:02:07;;;;;;;6.55;5.55;;;;;;;-144.30;26.43;81430.78;5132589;27;20746;-54
2023/07/29 05:04:45;;;;;;;5.43;5.00;;;;;;;-144.30;26.24;81321.56;5132936;27;20193;-55
2023/07/29 05:07:17;;;;;;;5.10;4.70;;;;;;;-144.30;26.04;81301.72;5132414;27;20280;-54
2023/07/29 05:09:55;;;;;;;6.78;5.05;;;;;;;-144.30;26.21;81422.84;5132301;27;20208;-55
2023/07/29 05:12:38;;;;;;;5.03;4.53;;;;;;;-144.30;25.48;81218.31;5132615;27;20211;-55
2023/07/29 05:15:18;;;;;;;7.45;5.07;;;;;;;-144.30;24.91;80896.69;5132691;27;20193;-54
2023/07/29 05:17:57;;;;;;;5.25;4.85;;;;;;;-144.30;24.93;80962.19;5132124;27;20800;-54
2023/07/29 05:20:51;;;;;;;5.47;5.00;;;;;;;-144.30;24.81;80827.19;5132490;27;20553;-55
2023/07/29 05:23:55;;;;;;;9.18;5.82;;;;;;;-144.30;24.58;80847.06;5132795;27;20583;-54
2023/07/29 05:26:52;;;;;;;5.05;4.60;;;;;;;-144.30;24.77;80958.22;5128854;27;20228;-54
2023/07/29 05:29:57;;;;;;;11.07;4.97;;;;;;;-144.30;24.61;80789.47;5132624;27;20203;-54
2023/07/29 05:32:51;;;;;;;5.25;4.78;;;;;;;-144.30;24.66;80783.53;5131999;27;20197;-51
2023/07/29 05:35:22;;;;;;;10.52;7.05;;;;;;;-144.30;24.48;80549.28;5126247;27;20205;-50
2023/07/29 05:38:00;;;;;;;9.43;6.80;;;;;;;-144.30;23.99;80410.31;5131965;27;20278;-51
2023/07/29 05:40:31;;;;;;;9.00;5.80;;;;;;;-144.30;24.49;80729.91;5131407;27;20668;-54
2023/07/29 05:43:04;;;;;;;8.20;5.50;;;;;;;-144.30;24.58;80720.00;5131789;27;20713;-51
2023/07/29 05:45:36;;;;;;;11.25;5.97;;;;;;;-144.30;25.29;80974.13;5131450;27;20603;-50
2023/07/29 05:48:10;;;;;;;9.50;5.93;;;;;;;-144.30;24.81;80735.88;5131419;27;20304;-54
2023/07/29 05:50:47;;;;;;;7.45;5.03;;;;;;;-144.30;24.97;81017.78;5131957;27;20664;-54
2023/07/29 05:53:38;;;;;;;8.70;4.72;;;;;;;-144.30;25.49;81228.25;5128493;27;20251;-53
2023/07/29 05:56:37;;;;;;;;;;;;;;;;;;;;;
2023/07/29 05:59:29;;;;;;;7.50;4.78;;;;;;;-144.30;25.38;81121.03;5126720;27;20207;-54
2023/07/29 06:02:26;;;;;;;6.18;4.78;;;;;;;-144.30;25.27;81184.56;5129435;27;20253;-54
2023/07/29 06:05:01;;;;;;;4.43;3.83;;;;;;;-144.30;25.24;81162.72;5130375;27;20641;-55
2023/07/29 06:07:33;;;;;;;4.35;4.00;;;;;;;-144.30;24.68;80952.28;5130947;27;20198;-54
2023/07/29 06:10:08;;;;;;;5.32;4.35;;;;;;;-144.30;25.01;81005.88;5130331;27;20193;-50
2023/07/29 06:12:37;;;;;;;7.80;4.75;;;;;;;-144.30;24.99;81152.81;5130636;27;20193;-55
2023/07/29 06:15:06;;;;;;;5.47;3.80;;;;;;;-144.30;25.03;81043.59;5131317;27;20197;-52
2023/07/29 06:17:38;;;;;;;10.50;4.55;;;;;;;-144.30;24.77;81047.56;5131123;27;20625;-54
2023/07/29 06:20:11;;;;;;;7.25;4.15;;;;;;;-144.30;24.99;80922.50;5131322;27;20193;-53
2023/07/29 06:22:47;;;;;;;6.20;3.95;;;;;;;-144.30;24.83;80940.38;5130861;27;20432;-51
2023/07/29 06:25:14;;;;;;;9.57;3.67;;;;;;;-144.30;24.21;80797.41;5129497;27;20232;-59
2023/07/29 06:27:51;;;;;;;6.57;3.92;;;;;;;-144.30;24.37;80862.94;5131530;27;20197;-54
2023/07/29 06:30:26;;;;;;;4.47;3.85;;;;;;;-144.30;24.88;80980.06;5131088;27;20280;-54
2023/07/29 06:32:57;;;;;;;4.10;3.63;;;;;;;-144.30;24.64;80904.63;5131412;27;20578;-51
2023/07/29 06:35:25;;;;;;;4.22;3.63;;;;;;;-144.30;24.69;81021.75;5130676;27;20200;-49
2023/07/29 06:38:00;;;;;;;8.57;4.05;;;;;;;-144.30;24.78;80922.50;5131017;27;20204;-51
2023/07/29 06:40:31;;;;;;;4.45;4.07;;;;;;;-144.30;24.57;80807.34;5131142;27;20224;-49
2023/07/29 06:43:01;;;;;;;4.28;3.88;;;;;;;-144.30;24.45;80779.56;5130805;27;20217;-50
2023/07/29 06:45:31;;;;;;;4.55;4.00;;;;;;;-144.30;24.44;80908.59;5130920;27;20201;-51
2023/07/29 06:48:13;;;;;;;4.35;4.05;;;;;;;-144.30;24.94;81182.59;5131468;27;20204;-50
2023/07/29 06:50:50;;;;;;;4.90;4.38;;;;;;;-144.30;25.17;81222.28;5130876;27;20683;-54
2023/07/29 06:53:19;;;;;;;6.75;5.68;;;;;;;-144.30;25.12;81127.00;5130190;27;20509;-50
2023/07/29 06:56:05;;;;;;;5.82;4.25;;;;;;;-144.30;25.17;81192.50;5130048;27;20228;-51
2023/07/29 06:58:59;;;;;;;7.80;7.15;;;;;;;-144.30;25.96;81482.41;5129532;27;20197;-50
2023/07/29 07:01:59;;;;;;;4.10;3.90;;;;;;;-144.30;26.26;81528.09;5128842;27;20669;-49
2023/07/29 07:04:54;;;;;;;5.07;4.63;;;;;;;-144.30;26.36;81547.94;5127599;27;20198;-50
2023/07/29 07:07:42;;;;;;;4.82;4.13;;;;;;;-144.30;26.19;81534.03;5129673;27;20206;-50
2023/07/29 07:10:27;;;;;;;7.20;6.53;;;;;;;-144.30;26.07;81442.69;5130420;27;20201;-50
2023/07/29 07:13:11;;;;;;;7.18;4.55;;;;;;;-144.30;26.50;81561.84;5129406;28;20189;-54
2023/07/29 07:15:39;;;;;;;4.70;4.13;;;;;;;-144.30;26.60;81593.63;5110072;28;20198;-52
2023/07/29 07:18:15;;;;;;;6.13;4.50;;;;;;;-144.30;26.82;81567.78;5109487;28;20310;-54
2023/07/29 07:20:50;;;;;;;5.70;5.07;;;;;;;-144.30;26.42;81474.47;5110441;28;20194;-50
2023/07/29 07:23:35;;;;;;;7.90;4.13;;;;;;;-144.30;26.41;81488.38;5110064;28;20664;-50
2023/07/29 07:26:02;;;;;;;5.72;5.18;;;;;;;-144.30;26.46;81555.88;5108121;28;20206;-55
2023/07/29 07:28:30;;;;;;;6.05;5.05;;;;;;;-144.30;26.72;81645.25;5111457;28;20201;-54
2023/07/29 07:31:03;;;;;;;4.65;4.40;;;;;;;-144.30;26.71;81639.28;5128660;28;20204;-55
2023/07/29 07:34:01;;;;;;;4.90;4.43;;;;;;;-144.30;26.31;81565.81;5131070;27;20269;-50
2023/07/29 07:37:05;;;;;;;6.82;4.45;;;;;;;-144.30;26.19;81486.38;5133300;27;20912;-50
2023/07/29 07:39:54;;;;;;;9.80;4.45;;;;;;;-144.30;26.31;81406.97;5134569;27;20224;-50
2023/07/29 07:42:42;;;;;;;10.10;4.30;;;;;;;-144.30;25.41;81224.28;5133324;27;20289;-53
2023/07/29 07:45:34;;;;;;;4.82;3.78;;;;;;;-144.30;25.07;81160.75;5134049;27;20657;-54
2023/07/29 07:48:35;;;;;;;4.60;4.20;;;;;;;-144.30;25.08;80974.13;5130435;27;20197;-53
2023/07/29 07:51:23;;;;;;;6.13;4.40;;;;;;;-144.30;24.57;80793.44;5134482;27;20196;-50
2023/07/29 07:54:21;;;;;;;10.55;4.35;;;;;;;-144.30;24.31;80668.38;5130048;27;20288;-54
2023/07/29 08:00:06;;;;;;;4.95;4.35;;;;;;;-144.30;23.72;80388.47;5130646;27;20205;-53
2023/07/29 08:03:02;;;;;;;4.53;4.15;;;;;;;-144.30;23.98;80537.34;5133683;27;20228;-50
2023/07/29 08:05:48;;;;;;;5.90;4.13;;;;;;;-144.30;24.03;80450.00;5134229;27;20201;-51
2023/07/29 08:08:31;;;;;;;7.53;4.60;;;;;;;-144.30;23.79;80442.06;5131851;27;20205;-51
2023/07/29 08:11:26;;;;;;;8.27;5.10;;;;;;;-144.30;24.28;80620.72;5133097;27;20226;-54
2023/07/29 08:14:26;;;;;;;7.43;4.72;;;;;;;-144.30;24.93;80972.13;5133596;27;20272;-50
2023/07/29 08:17:13;;;;;;;4.78;4.38;;;;;;;-144.30;24.45;80751.75;5133238;27;20193;-50
2023/07/29 08:20:04;;;;;;;4.25;3.85;;;;;;;-144.30;24.23;80567.13;5130556;27;20225;-48
2023/07/29 08:23:04;;;;;;;;;;;;;;;;;;;;;
2023/07/29 08:26:02;;;;;;;4.20;3.90;;;;;;;-144.30;24.33;80644.56;5130695;27;20197;-50
2023/07/29 08:29:24;;;;;;;4.05;3.75;;;;;;;-144.30;24.29;80716.03;5133030;27;20193;-50
2023/07/29 08:32:20;;;;;;;4.90;4.50;;;;;;;-144.30;24.32;80638.59;5133092;27;20197;-54
2023/07/29 08:35:14;;;;;;;4.50;3.72;;;;;;;-144.30;24.41;80696.16;5130904;27;20225;-49
2023/07/29 08:38:03;;;;;;;4.10;3.80;;;;;;;-144.30;24.24;80779.56;5132131;27;20189;-50
2023/07/29 08:41:04;;;;;;;4.57;4.28;;;;;;;-144.30;24.42;80932.41;5132928;27;20204;-51
2023/07/29 08:44:12;;;;;;;6.38;5.35;;;;;;;-144.30;25.41;81206.41;5132306;27;20220;-50
2023/07/29 08:47:12;;;;;;;4.15;3.85;;;;;;;-144.30;25.31;81311.66;5130437;27;20201;-54
2023/07/29 08:50:19;;;;;;;4.45;4.15;;;;;;;-144.30;25.66;81391.06;5130358;27;20209;-54
2023/07/29 08:53:11;;;;;;;4.80;4.47;;;;;;;-144.30;26.02;81426.81;5133053;27;20204;-54
2023/07/29 08:56:04;;;;;;;4.70;4.10;;;;;;;-144.30;25.65;81387.09;5130134;27;20194;-54
2023/07/29 08:59:04;;;;;;;8.75;4.25;;;;;;;-144.30;25.92;81293.78;5132164;27;20305;-50
2023/07/29 09:01:47;;;;;;;10.80;4.40;;;;;;;-144.30;25.56;81307.69;5132654;27;20198;-53
2023/07/29 09:04:50;;;;;;;;;;;;;;;;;;;;;
2023/07/29 09:07:41;;;;;;;6.05;4.30;;;;;;;-144.30;25.68;81474.47;5129464;27;20704;-48
2023/07/29 09:10:40;;;;;;;;;;;;;;;;;;;;;
2023/07/29 09:13:28;;;;;;;4.80;4.50;;;;;;;-144.30;25.66;81333.50;5129472;27;20196;-51
2023/07/29 09:16:26;;;;;;;5.97;4.30;;;;;;;-144.30;25.74;81230.25;5131980;27;20201;-53
2023/07/29 09:19:17;;;;;;;4.95;4.10;;;;;;;-144.30;25.42;81138.91;5131382;27;20315;-54
2023/07/29 09:22:09;;;;;;;4.80;3.75;;;;;;;-144.30;24.90;81148.84;5127969;27;20203;-54
2023/07/29 09:25:02;;;;;;;3.90;3.60;;;;;;;-144.30;24.86;81222.28;5131821;27;20190;-54
2023/07/29 09:30:32;;;;;;;4.40;4.03;;;;;;;-144.30;24.62;81172.66;5132228;27;20295;-54
2023/07/29 09:33:18;;;;;;;3.72;3.53;;;;;;;-144.30;24.49;81260.03;5126220;27;20224;-55
2023/07/29 09:36:06;;;;;;;6.03;3.83;;;;;;;-144.30;24.26;81206.41;5132095;27;20198;-50
2023/07/29 09:39:03;;;;;;;4.13;3.25;;;;;;;-144.30;24.09;81220.31;5131755;27;20197;-51
2023/07/29 09:42:01;;;;;;;3.80;3.55;;;;;;;-144.30;23.67;81208.41;5129921;27;20326;-53
2023/07/29 09:47:38;;;;;;;7.00;3.60;;;;;;;-144.30;23.92;81125.00;5131596;27;20193;-50
2023/07/29 09:50:43;;;;;;;4.38;4.07;;;;;;;-144.30;23.86;81079.34;5130855;27;20246;-53
2023/07/29 09:53:33;;;;;;;3.75;3.42;;;;;;;-144.30;24.00;81079.34;5130066;27;20548;-52
2023/07/29 09:56:24;;;;;;;3.45;3.15;;;;;;;-144.30;23.61;81087.28;5129982;27;20588;-51
2023/07/29 09:58:59;;;;;;;4.75;3.40;;;;;;;-144.30;23.51;81071.41;5130991;27;20197;-52
2023/07/29 10:01:46;;;;;;;4.40;3.22;;;;;;;-144.30;23.32;81021.75;5131682;27;20731;-52
2023/07/29 10:04:40;;;;;;;4.18;3.90;;;;;;;-144.30;23.05;80928.44;5130694;27;20221;-54
2023/07/29 10:07:17;;;;;;;3.70;3.40;;;;;;;-144.30;23.49;80938.38;5130960;27;20194;-53
2023/07/29 10:10:03;;;;;;;5.35;3.67;;;;;;;-144.30;23.96;81228.25;5112558;27;20209;-53
2023/07/29 10:12:33;;;;;;;4.20;4.00;;;;;;;-144.30;23.72;81158.75;5111119;27;20194;-50
2023/07/29 10:15:13;;;;;;;4.40;4.10;;;;;;;-144.30;24.20;81327.53;5130946;27;20553;-52
2023/07/29 10:17:41;;;;;;;4.07;3.70;;;;;;;-144.30;24.37;81307.69;5127331;27;20199;-51
2023/07/29 10:20:24;;;;;;;4.28;3.97;;;;;;;-144.30;24.37;81319.59;5129351;27;20226;-50
2023/07/29 10:23:19;;;;;;;3.95;3.55;;;;;;;-144.30;24.47;81295.75;5129653;27;20315;-50
2023/07/29 10:26:12;;;;;;;5.70;4.18;;;;;;;-144.30;24.42;81335.47;5130596;27;20197;-51
2023/07/29 10:29:00;;;;;;;4.88;4.57;;;;;;;-144.30;24.27;81363.28;5126647;27;20216;-54
2023/07/29 10:31:42;;;;;;;5.45;5.05;;;;;;;-144.30;24.06;81746.53;5129796;27;20284;-54
2023/07/29 10:34:35;;;;;;;5.63;4.88;;;;;;;-144.30;24.13;81597.59;5131174;27;20186;-53
2023/07/29 10:37:21;;;;;;;4.18;3.97;;;;;;;-144.30;24.33;81897.44;5130744;27;20198;-53
2023/07/29 10:40:19;;;;;;;4.38;3.97;;;;;;;-144.30;24.59;81708.78;5128922;27;20194;-51
2023/07/29 10:43:09;;;;;;;4.80;4.47;;;;;;;-144.30;24.86;81752.47;5129314;27;20301;-54
2023/07/29 10:45:54;;;;;;;5.00;3.50;;;;;;;-144.30;24.52;81768.38;5130160;27;20288;-51
2023/07/29 10:49:01;;;;;;;6.07;3.88;;;;;;;-144.30;24.52;81875.59;5130461;27;20690;-50
2023/07/29 10:51:35;;;;;;;3.97;3.72;;;;;;;-144.30;24.93;81909.38;5130418;27;20193;-53
2023/07/29 10:54:14;;;;;;;4.00;3.63;;;;;;;-144.30;25.30;81881.56;5117842;27;20204;-53
2023/07/29 10:56:58;;;;;;;4.70;4.30;;;;;;;-144.30;24.96;81804.09;5130767;27;20197;-54
2023/07/29 10:59:36;;;;;;;4.18;3.92;;;;;;;-144.30;24.87;81863.69;5129850;27;20197;-53
2023/07/29 11:02:26;;;;;;;4.22;3.92;;;;;;;-144.30;24.85;81879.56;5130947;27;20697;-54
2023/07/29 11:04:58;;;;;;;3.90;3.60;;;;;;;-144.30;24.96;81889.50;5130349;27;20271;-54
2023/07/29 11:07:34;;;;;;;3.42;3.22;;;;;;;-144.30;24.81;81808.09;5130036;27;20246;-55
2023/07/29 11:10:08;;;;;;;5.70;3.42;;;;;;;-144.30;24.92;81839.84;5123904;27;20225;-55
2023/07/29 11:12:53;;;;;;;3.58;3.38;;;;;;;-144.30;25.13;81869.66;5128846;27;20731;-54
2023/07/29 11:15:33;;;;;;;3.25;3.05;;;;;;;-144.30;24.75;81907.38;5129989;27;20250;-52
2023/07/29 11:18:11;;;;;;;3.45;3.25;;;;;;;-144.30;25.02;81871.63;5129835;27;20225;-50
2023/07/29 11:20:51;;;;;;;4.10;3.67;;;;;;;-144.30;25.04;81831.91;5119181;27;20278;-52
2023/07/29 11:23:35;;;;;;;3.38;3.25;;;;;;;-144.30;25.16;81899.44;5128064;28;20328;-51
2023/07/29 11:26:17;;;;;;;3.60;3.30;;;;;;;-144.30;24.86;81883.53;5130256;28;20202;-54
2023/07/29 11:28:51;;;;;;;4.72;2.92;;;;;;;-144.30;25.12;81889.50;5130150;28;20202;-54
2023/07/29 11:31:21;;;;;;;3.67;3.40;;;;;;;-144.30;25.17;81913.34;5109680;28;20198;-54
2023/07/29 11:34:00;;;;;;;3.70;3.50;;;;;;;-144.30;25.16;81883.53;5109764;28;20187;-54
2023/07/29 11:36:53;;;;;;;3.22;3.13;;;;;;;-144.30;24.98;81883.53;5109288;28;20281;-53
2023/07/29 11:39:33;;;;;;;3.50;3.30;;;;;;;-144.30;25.15;81849.78;5108128;28;20317;-54
2023/07/29 11:42:08;;;;;;;3.60;3.40;;;;;;;-144.30;25.00;81865.66;5109637;28;20190;-50
2023/07/29 11:44:45;;;;;;;3.08;2.72;;;;;;;-144.30;25.00;81849.78;5107661;28;20225;-53
2023/07/29 11:47:15;;;;;;;3.33;3.13;;;;;;;-144.30;25.21;81947.09;5109418;28;20194;-53
2023/07/29 11:49:52;;;;;;;3.65;3.05;;;;;;;-144.30;25.20;82012.63;5109452;28;20191;-53
2023/07/29 11:52:32;;;;;;;3.65;2.92;;;;;;;-144.30;24.99;82006.69;5109601;28;20198;-54
2023/07/29 11:55:12;;;;;;;4.28;3.95;;;;;;;-144.30;25.29;82032.50;5113782;28;20201;-53
2023/07/29 11:58:04;;;;;;;3.05;2.92;;;;;;;-144.30;25.36;82024.56;5129445;28;20648;-53
2023/07/29 12:00:38;;;;;;;3.25;3.08;;;;;;;-144.30;25.54;82054.34;5130107;28;20198;-53
2023/07/29 12:03:11;;;;;;;3.67;3.05;;;;;;;-144.30;25.32;82050.38;5129841;28;20200;-51
2023/07/29 12:05:55;;;;;;;3.20;3.00;;;;;;;-144.30;25.12;82060.28;5129801;28;20252;-54
2023/07/29 12:08:32;;;;;;;3.22;3.03;;;;;;;-144.30;25.20;82016.59;5128343;28;20190;-54
2023/07/29 12:11:07;;;;;;;4.28;2.55;;;;;;;-144.30;24.58;82052.34;5129828;28;20190;-50
2023/07/29 12:13:41;;;;;;;3.08;2.88;;;;;;;-144.30;24.86;82058.31;5129577;28;20215;-50
2023/07/29 12:16:28;;;;;;;5.28;2.55;;;;;;;-144.30;25.08;82145.69;5130054;28;20197;-50
2023/07/29 12:19:03;;;;;;;3.08;2.88;;;;;;;-144.30;25.28;82161.59;5128745;27;20307;-50
2023/07/29 12:21:34;;;;;;;2.70;2.60;;;;;;;-144.30;24.99;82125.84;5133126;27;20578;-50
2023/07/29 12:24:03;;;;;;;2.60;2.50;;;;;;;-144.30;24.93;82062.28;5133193;27;20226;-51
2023/07/29 12:26:37;;;;;;;3.13;2.92;;;;;;;-144.30;24.74;82094.06;5133253;27;20652;-50
2023/07/29 12:29:14;;;;;;;2.80;2.60;;;;;;;-144.30;25.02;82062.28;5133182;27;20289;-53
2023/07/29 12:31:57;;;;;;;5.00;2.30;;;;;;;-144.30;24.97;82088.09;5133398;27;20198;-53
2023/07/29 12:34:29;;;;;;;2.15;2.05;;;;;;;-144.30;24.47;82002.69;5133250;27;20281;-55
2023/07/29 12:37:02;;;;;;;2.45;2.35;;;;;;;-144.30;24.59;82084.13;5133227;27;20198;-54
2023/07/29 12:39:30;;;;;;;4.28;2.15;;;;;;;-144.30;24.43;82096.03;5129606;27;20206;-51
2023/07/29 12:42:03;;;;;;;2.88;2.53;;;;;;;-144.30;24.76;81990.78;5131401;27;20204;-51
2023/07/29 12:47:59;;;;;;;2.10;2.00;;;;;;;-144.30;24.30;82038.44;5132125;27;20285;-51
2023/07/29 12:50:50;;;;;;;2.25;2.15;;;;;;;-144.30;24.67;82181.44;5132967;27;20231;-51
2023/07/29 12:53:50;;;;;;;2.10;2.00;;;;;;;-144.30;24.82;82159.59;5133055;27;20243;-50
2023/07/29 12:56:26;;;;;;;1.77;1.67;;;;;;;-144.30;24.40;82141.72;5132276;27;20651;-50
2023/07/29 12:58:56;;;;;;;1.92;1.83;;;;;;;-144.30;24.70;82177.47;5128382;27;20201;-54
2023/07/29 13:01:25;;;;;;;1.55;1.55;;;;;;;-144.30;24.90;82189.38;5132854;27;20194;-51